Time;durP1;ratioP1;P1;durP2;ratioP2;P2;SDS_P1;SDS_P2;PMS_P1;PMS_P2;Temp;Humidity;BMP_temperature;BMP_pressure;BME280_temperature;BME280_humidity;BME280_pressure;Samples;Min_cycle;Max_cycle;Signal;HPM_P1;HPM_P2
2022/07/14 00:02:13;;;;;;;5.90;3.20;;;22.80;1.00;;;;;;5066776;28;20794;-72
2022/07/14 00:04:39;;;;;;;4.33;2.97;;;22.80;1.00;;;;;;5073155;28;20230;-72
2022/07/14 00:07:04;;;;;;;3.47;3.17;;;22.80;1.00;;;;;;5073078;28;20260;-72
2022/07/14 00:09:33;;;;;;;6.73;2.97;;;22.80;1.00;;;;;;5073026;28;20179;-73
2022/07/14 00:12:04;;;;;;;3.13;2.93;;;22.80;1.00;;;;;;5064894;28;20534;-74
2022/07/14 00:14:30;;;;;;;6.33;3.20;;;22.90;1.00;;;;;;5069371;28;20905;-72
2022/07/14 00:16:55;;;;;;;6.00;3.63;;;22.90;1.00;;;;;;5072698;28;20523;-72
2022/07/14 00:19:21;;;;;;;3.43;2.60;;;22.90;1.00;;;;;;5067753;28;20184;-72
2022/07/14 00:21:47;;;;;;;3.80;2.97;;;22.90;1.00;;;;;;5060355;28;20173;-72
2022/07/14 00:24:13;;;;;;;7.83;3.27;;;22.80;1.00;;;;;;5072582;28;20163;-72
2022/07/14 00:26:39;;;;;;;3.27;3.07;;;22.80;1.00;;;;;;5073040;28;20447;-72
2022/07/14 00:29:27;;;;;;;4.00;2.90;;;22.80;1.00;;;;;;5073101;28;20418;-78
2022/07/14 00:31:53;;;;;;;3.93;3.10;;;22.80;1.00;;;;;;5072678;28;20418;-78
2022/07/14 00:34:21;;;;;;;6.37;2.90;;;22.70;1.00;;;;;;5059426;28;20490;-77
2022/07/14 00:36:58;;;;;;;4.73;3.47;;;22.70;1.00;;;;;;5062137;28;20602;-78
2022/07/14 00:39:54;;;;;;;9.00;3.93;;;22.70;1.00;;;;;;5071714;28;20446;-78
2022/07/14 00:42:46;;;;;;;5.67;3.50;;;22.70;1.00;;;;;;5056720;28;20404;-78
2022/07/14 00:45:27;;;;;;;4.43;3.00;;;22.70;1.00;;;;;;5066643;28;20972;-78
2022/07/14 00:47:58;;;;;;;14.73;4.00;;;22.60;1.00;;;;;;5072161;28;20421;-78
2022/07/14 00:50:27;;;;;;;5.93;3.13;;;22.50;1.00;;;;;;5072725;28;20985;-77
2022/07/14 00:52:58;;;;;;;6.80;3.50;;;22.50;1.00;;;;;;5066299;28;20407;-78
2022/07/14 00:55:51;;;;;;;4.10;3.47;;;22.50;1.00;;;;;;5069598;28;20461;-77
2022/07/14 00:58:17;;;;;;;5.27;2.93;;;22.60;1.00;;;;;;5069947;28;20401;-72
2022/07/14 01:00:43;;;;;;;5.93;3.40;;;22.60;1.00;;;;;;5067218;28;20402;-72
2022/07/14 01:03:08;;;;;;;4.17;3.37;;;22.50;1.00;;;;;;5061576;28;20169;-72
2022/07/14 01:05:40;;;;;;;5.37;3.70;;;22.50;1.00;;;;;;5065677;28;20172;-72
2022/07/14 01:08:06;;;;;;;4.03;3.63;;;22.50;1.00;;;;;;5074869;28;20214;-73
2022/07/14 01:10:32;;;;;;;3.10;2.80;;;22.50;1.00;;;;;;5075817;28;20431;-73
2022/07/14 01:13:00;;;;;;;3.70;3.33;;;22.40;1.00;;;;;;5074447;28;20427;-72
2022/07/14 01:15:26;;;;;;;5.20;3.20;;;22.40;1.00;;;;;;5062828;28;20196;-72
2022/07/14 01:17:52;;;;;;;3.57;3.27;;;22.40;1.00;;;;;;5075274;28;20502;-72
2022/07/14 01:20:18;;;;;;;3.20;3.00;;;22.50;1.00;;;;;;5075694;28;20496;-72
2022/07/14 01:22:49;;;;;;;3.00;2.70;;;22.40;1.00;;;;;;5075411;28;20272;-72
2022/07/14 01:25:19;;;;;;;3.87;3.47;;;22.40;1.00;;;;;;5071872;28;20441;-72
2022/07/14 01:27:45;;;;;;;4.40;3.27;;;22.30;1.00;;;;;;5074525;28;20426;-73
2022/07/14 01:30:11;;;;;;;3.73;2.83;;;22.30;1.00;;;;;;5073488;28;20943;-72
2022/07/14 01:32:36;;;;;;;3.50;3.10;;;22.20;1.00;;;;;;5075410;28;20205;-72
2022/07/14 01:35:06;;;;;;;7.03;3.43;;;22.20;1.00;;;;;;5065923;28;20936;-73
2022/07/14 01:37:32;;;;;;;5.97;3.20;;;22.20;1.00;;;;;;5072269;28;20179;-73
2022/07/14 01:40:04;;;;;;;6.40;3.47;;;22.10;1.00;;;;;;5065497;28;20437;-72
2022/07/14 01:42:30;;;;;;;3.57;3.27;;;22.00;1.00;;;;;;5077557;28;20429;-72
2022/07/14 01:44:56;;;;;;;9.67;3.20;;;22.00;1.00;;;;;;5084412;28;20428;-72
2022/07/14 01:47:22;;;;;;;7.63;3.60;;;21.90;1.00;;;;;;5074973;28;20664;-72
2022/07/14 01:49:47;;;;;;;3.83;3.53;;;21.80;1.00;;;;;;5075398;28;20506;-72
2022/07/14 01:52:13;;;;;;;4.60;3.40;;;21.80;1.00;;;;;;5075212;28;20181;-72
2022/07/14 01:54:38;;;;;;;4.10;3.70;;;21.70;1.00;;;;;;5073708;28;20182;-72
2022/07/14 01:57:06;;;;;;;4.90;3.20;;;21.60;1.00;;;;;;5064395;28;20278;-72
2022/07/14 01:59:51;;;;;;;4.23;3.50;;;21.50;1.00;;;;;;5075707;28;20162;-78
2022/07/14 02:02:21;;;;;;;15.33;3.70;;;21.50;1.00;;;;;;5064866;28;20474;-78
2022/07/14 02:04:51;;;;;;;6.33;3.10;;;21.40;1.00;;;;;;5073656;28;20421;-78
2022/07/14 02:07:27;;;;;;;5.67;3.30;;;21.30;1.00;;;;;;5074872;28;20820;-78
2022/07/14 02:13:06;;;;;;;3.83;3.30;;;21.10;1.00;;;;;;5061750;28;20466;-78
2022/07/14 02:15:33;;;;;;;6.37;3.60;;;21.40;1.00;;;;;;5074370;28;20460;-78
2022/07/14 02:18:04;;;;;;;4.93;3.90;;;20.90;1.00;;;;;;5074453;28;20841;-78
2022/07/14 02:20:39;;;;;;;5.80;4.00;;;20.80;1.00;;;;;;5074513;28;20446;-78
2022/07/14 02:23:10;;;;;;;3.63;3.33;;;20.70;1.00;;;;;;5058201;28;20403;-78
2022/07/14 02:25:51;;;;;;;4.20;3.80;;;20.60;1.00;;;;;;5070905;28;20411;-78
2022/07/14 02:28:17;;;;;;;5.07;4.07;;;20.60;1.00;;;;;;5074091;28;20514;-73
2022/07/14 02:30:45;;;;;;;5.03;3.37;;;20.50;1.00;;;;;;5061879;28;20429;-72
2022/07/14 02:33:11;;;;;;;4.53;4.10;;;20.50;1.00;;;;;;5071736;28;20808;-73
2022/07/14 02:35:36;;;;;;;4.77;4.10;;;20.40;1.00;;;;;;5074148;28;20443;-72
2022/07/14 02:38:02;;;;;;;10.27;4.47;;;20.40;1.00;;;;;;5074186;28;20184;-73
2022/07/14 02:40:33;;;;;;;6.63;4.00;;;20.40;1.00;;;;;;5074384;28;20195;-73
2022/07/14 02:42:59;;;;;;;11.33;4.30;;;20.40;1.00;;;;;;5073936;28;20419;-73
2022/07/14 02:45:25;;;;;;;6.27;3.80;;;20.30;1.00;;;;;;5074736;28;20501;-78
2022/07/14 02:47:58;;;;;;;5.23;3.43;;;20.30;1.00;;;;;;5073878;28;20187;-78
2022/07/14 02:50:23;;;;;;;6.77;4.00;;;20.30;1.00;;;;;;5072768;28;20447;-78
2022/07/14 02:52:52;;;;;;;3.87;3.57;;;20.30;1.00;;;;;;5067458;28;20420;-78
2022/07/14 02:55:28;;;;;;;6.03;3.87;;;20.20;1.00;;;;;;5067756;28;20173;-78
2022/07/14 02:58:10;;;;;;;6.50;4.43;;;20.30;1.00;;;;;;5073936;28;20459;-78
2022/07/14 03:01:05;;;;;;;6.00;4.10;;;20.30;1.00;;;;;;5074123;28;20413;-77
2022/07/14 03:03:35;;;;;;;5.00;3.80;;;20.30;1.00;;;;;;5073079;28;20901;-78
2022/07/14 03:06:21;;;;;;;5.37;3.93;;;20.30;1.00;;;;;;5065713;28;20411;-78
2022/07/14 03:08:58;;;;;;;9.53;3.73;;;20.20;1.00;;;;;;5066783;28;20418;-78
2022/07/14 03:11:28;;;;;;;8.70;3.80;;;20.20;1.00;;;;;;5066417;28;20411;-78
2022/07/14 03:13:54;;;;;;;6.10;4.00;;;20.20;1.00;;;;;;5066063;28;20446;-78
2022/07/14 03:16:34;;;;;;;4.13;3.80;;;20.20;1.00;;;;;;5059414;28;20895;-78
2022/07/14 03:19:10;;;;;;;4.43;4.03;;;20.20;1.00;;;;;;5061438;28;20463;-78
2022/07/14 03:21:53;;;;;;;4.33;3.87;;;20.10;1.00;;;;;;5073609;28;20397;-78
2022/07/14 03:24:51;;;;;;;4.30;3.90;;;20.10;1.00;;;;;;5061627;28;20411;-78
2022/07/14 03:27:28;;;;;;;5.67;3.60;;;20.10;1.00;;;;;;5063749;28;20410;-78
2022/07/14 03:29:53;;;;;;;12.03;4.90;;;20.10;1.00;;;;;;5060205;28;20455;-78
2022/07/14 03:32:51;;;;;;;8.43;4.80;;;20.10;1.00;;;;;;5073800;28;20426;-78
2022/07/14 03:35:45;;;;;;;12.47;4.83;;;20.10;1.00;;;;;;5062382;28;20179;-79
2022/07/14 03:38:33;;;;;;;8.20;4.53;;;20.10;1.00;;;;;;5053867;28;20411;-78
2022/07/14 03:41:02;;;;;;;14.40;3.80;;;20.20;1.00;;;;;;5069402;28;20496;-78
2022/07/14 03:43:34;;;;;;;5.97;3.70;;;20.10;1.00;;;;;;5073476;28;20747;-79
2022/07/14 03:46:00;;;;;;;6.67;4.50;;;20.20;1.00;;;;;;5073769;28;20881;-73
2022/07/14 03:48:26;;;;;;;9.00;4.73;;;20.20;1.00;;;;;;5063160;28;20415;-73
2022/07/14 03:51:04;;;;;;;11.83;4.60;;;20.30;1.00;;;;;;5069342;28;20418;-72
2022/07/14 03:53:30;;;;;;;5.97;4.07;;;20.30;1.00;;;;;;5073499;28;20263;-73
2022/07/14 03:55:59;;;;;;;5.20;3.90;;;20.30;1.00;;;;;;5073120;28;20528;-73
2022/07/14 03:58:28;;;;;;;9.87;4.77;;;20.30;1.00;;;;;;5073370;28;20172;-72
2022/07/14 04:00:53;;;;;;;5.53;4.00;;;20.40;1.00;;;;;;5066957;28;20426;-72
2022/07/14 04:03:19;;;;;;;5.37;4.40;;;20.40;1.00;;;;;;5060918;28;20759;-73
2022/07/14 04:05:48;;;;;;;8.67;4.07;;;20.40;1.00;;;;;;5072180;28;20183;-73
2022/07/14 04:08:14;;;;;;;4.07;3.70;;;20.50;1.00;;;;;;5073233;28;20183;-73
2022/07/14 04:10:51;;;;;;;7.23;4.10;;;20.50;1.00;;;;;;5069140;28;20431;-72
2022/07/14 04:13:22;;;;;;;4.40;3.50;;;20.60;1.00;;;;;;5071959;28;20437;-73
2022/07/14 04:15:47;;;;;;;4.30;3.90;;;20.50;1.00;;;;;;5073497;28;20470;-73
2022/07/14 04:18:22;;;;;;;5.90;3.60;;;20.50;1.00;;;;;;5086951;28;20422;-73
2022/07/14 04:20:49;;;;;;;4.20;3.47;;;20.60;1.00;;;;;;5082770;28;20511;-73
2022/07/14 04:23:15;;;;;;;9.37;3.40;;;20.70;1.00;;;;;;5074017;28;20966;-73
2022/07/14 04:25:41;;;;;;;5.43;3.80;;;20.70;1.00;;;;;;5066791;28;20488;-73
2022/07/14 04:28:06;;;;;;;3.90;3.50;;;20.70;1.00;;;;;;5076522;28;20433;-73
2022/07/14 04:30:51;;;;;;;10.90;4.10;;;20.80;1.00;;;;;;5075956;28;20184;-78
2022/07/14 04:33:39;;;;;;;6.53;3.30;;;20.80;1.00;;;;;;5076752;28;20185;-78
2022/07/14 04:36:05;;;;;;;3.73;3.40;;;20.80;1.00;;;;;;5063354;28;20451;-78
2022/07/14 04:39:21;;;;;;;3.63;3.33;;;20.90;1.00;;;;;;5068224;28;20467;-78
2022/07/14 04:41:52;;;;;;;4.93;4.10;;;20.90;1.00;;;;;;5065325;28;20415;-78
2022/07/14 04:44:22;;;;;;;8.23;3.77;;;21.00;1.00;;;;;;5075261;28;20447;-79
2022/07/14 04:47:04;;;;;;;5.80;3.93;;;21.00;1.00;;;;;;5067270;28;20444;-78
2022/07/14 04:52:18;;;;;;;7.30;3.43;;;21.10;1.00;;;;;;5062987;28;20951;-79
2022/07/14 04:54:52;;;;;;;5.93;3.33;;;21.20;1.00;;;;;;5068264;28;20419;-78
2022/07/14 04:57:19;;;;;;;4.60;3.83;;;21.20;1.00;;;;;;5069689;28;20280;-78
2022/07/14 05:00:04;;;;;;;15.73;3.87;;;21.20;1.00;;;;;;5066188;28;20405;-78
2022/07/14 05:02:46;;;;;;;4.07;3.30;;;21.30;1.00;;;;;;5056210;28;20408;-79
2022/07/14 05:05:33;;;;;;;10.83;3.80;;;21.40;1.00;;;;;;5070712;28;20891;-81
2022/07/14 05:08:10;;;;;;;5.83;3.63;;;21.40;1.00;;;;;;5076270;28;20439;-81
2022/07/14 05:10:51;;;;;;;4.57;3.47;;;21.50;1.00;;;;;;5075850;28;20789;-81
2022/07/14 05:13:22;;;;;;;5.40;3.77;;;21.60;1.00;;;;;;5063072;28;20433;-89
2022/07/14 05:19:09;;;;;;;3.53;3.23;;;21.80;1.00;;;;;;5056675;28;20372;-89
2022/07/14 05:22:09;;;;;;;4.90;3.50;;;21.90;1.00;;;;;;5071179;28;20424;-90
2022/07/14 05:28:52;;;;;;;6.83;3.07;;;22.10;1.00;;;;;;5070678;28;20927;-90
2022/07/14 05:31:18;;;;;;;9.10;4.20;;;22.20;1.00;;;;;;5074504;28;20928;-81
2022/07/14 05:34:03;;;;;;;7.73;3.20;;;22.30;1.00;;;;;;5056280;28;20432;-82
2022/07/14 05:36:29;;;;;;;11.83;3.40;;;22.40;1.00;;;;;;5055431;28;20450;-83
2022/07/14 05:38:55;;;;;;;11.30;3.50;;;22.50;1.00;;;;;;5069549;28;20431;-82
2022/07/14 05:41:22;;;;;;;14.00;3.40;;;22.60;1.00;;;;;;5074147;28;20187;-82
2022/07/14 05:43:48;;;;;;;6.77;3.70;;;22.80;1.00;;;;;;5071891;28;20184;-82
2022/07/14 05:46:15;;;;;;;2.90;2.40;;;22.90;1.00;;;;;;5065153;28;20421;-83
2022/07/14 05:49:03;;;;;;;5.77;2.77;;;23.10;1.00;;;;;;5068883;28;20420;-82
2022/07/14 05:52:05;;;;;;;2.20;2.00;;;23.20;1.00;;;;;;5067367;28;20489;-83
2022/07/14 05:54:31;;;;;;;4.00;2.50;;;23.30;1.00;;;;;;5067161;28;20419;-82
2022/07/14 05:57:16;;;;;;;5.03;2.60;;;23.50;1.00;;;;;;5065106;28;20551;-83
2022/07/14 05:59:52;;;;;;;14.13;2.50;;;23.70;1.00;;;;;;5060344;28;20436;-82
2022/07/14 06:03:09;;;;;;;4.17;2.50;;;23.90;1.00;;;;;;5067042;28;20830;-91
2022/07/14 06:06:27;;;;;;;2.40;2.20;;;24.00;1.00;;;;;;5060990;28;20433;-91
2022/07/14 06:09:21;;;;;;;2.60;2.17;;;24.10;1.00;;;;;;5071597;28;20425;-90
2022/07/14 06:11:54;;;;;;;13.17;2.50;;;24.10;1.00;;;;;;5067398;28;20423;-90
2022/07/14 06:14:21;;;;;;;3.13;2.47;;;24.20;1.00;;;;;;5055343;28;20477;-91
2022/07/14 06:16:52;;;;;;;3.57;2.23;;;24.20;1.00;;;;;;5066583;28;20461;-90
2022/07/14 06:19:51;;;;;;;11.20;2.57;;;24.30;1.00;;;;;;5070982;28;20410;-91
2022/07/14 06:22:22;;;;;;;5.13;2.27;;;24.40;1.00;;;;;;5074177;28;20417;-90
2022/07/14 06:28:22;;;;;;;2.40;2.20;;;24.60;1.00;;;;;;5073051;28;20456;-91
2022/07/14 06:30:47;;;;;;;3.07;2.37;;;24.70;1.00;;;;;;5070729;28;20515;-70
2022/07/14 06:33:13;;;;;;;4.20;2.80;;;24.80;1.00;;;;;;5062922;28;21003;-70
2022/07/14 06:35:40;;;;;;;3.90;2.03;;;25.00;1.00;;;;;;5073591;28;20575;-70
2022/07/14 06:38:06;;;;;;;3.60;2.37;;;25.20;1.00;;;;;;5073987;28;20174;-70
2022/07/14 06:40:32;;;;;;;3.63;2.30;;;25.40;1.00;;;;;;5073174;28;20435;-70
2022/07/14 06:42:58;;;;;;;10.50;2.50;;;25.50;1.00;;;;;;5073731;28;20181;-71
2022/07/14 06:45:24;;;;;;;6.13;2.60;;;25.60;1.00;;;;;;5073231;28;20416;-71
2022/07/14 06:47:50;;;;;;;3.00;2.80;;;25.80;1.00;;;;;;5065663;28;20261;-73
2022/07/14 06:50:15;;;;;;;3.13;2.43;;;26.00;1.00;;;;;;5057312;28;20905;-73
2022/07/14 06:52:41;;;;;;;4.90;3.00;;;26.30;1.00;;;;;;5072813;28;20394;-73
2022/07/14 06:55:10;;;;;;;2.37;2.20;;;26.60;1.00;;;;;;5058425;28;20185;-90
2022/07/14 06:58:21;;;;;;;6.97;3.23;;;26.80;1.00;;;;;;5054692;28;20194;-89
2022/07/14 07:00:50;;;;;;;4.27;2.40;;;26.90;1.00;;;;;;5062410;28;20522;-71
2022/07/14 07:03:16;;;;;;;6.27;2.50;;;26.90;1.00;;;;;;5068734;28;20513;-71
2022/07/14 07:08:28;;;;;;;5.23;2.43;;;26.80;1.00;;;;;;5060242;28;20848;-71
2022/07/14 07:10:56;;;;;;;7.20;2.20;;;26.90;1.00;;;;;;5066341;28;20433;-71
2022/07/14 07:13:22;;;;;;;7.73;2.63;;;27.00;1.00;;;;;;5072918;28;20446;-71
2022/07/14 07:15:48;;;;;;;17.43;2.70;;;27.10;1.00;;;;;;5073221;28;20461;-71
2022/07/14 07:18:14;;;;;;;4.10;2.43;;;27.30;1.00;;;;;;5055709;28;20427;-71
2022/07/14 07:20:40;;;;;;;4.20;2.40;;;27.40;1.00;;;;;;5061893;28;20261;-71
2022/07/14 07:23:06;;;;;;;3.73;2.70;;;27.40;1.00;;;;;;5058419;28;20171;-71
2022/07/14 07:25:32;;;;;;;12.83;2.77;;;27.40;1.00;;;;;;5067804;28;20263;-71
2022/07/14 07:28:01;;;;;;;7.30;2.30;;;27.60;1.00;;;;;;5073208;28;20888;-71
2022/07/14 07:30:27;;;;;;;5.03;2.90;;;27.70;1.00;;;;;;5071051;28;20460;-71
2022/07/14 07:32:53;;;;;;;4.40;2.60;;;27.70;1.00;;;;;;5067601;28;20909;-71
2022/07/14 07:35:19;;;;;;;9.00;2.33;;;27.80;1.00;;;;;;5069245;28;20428;-71
2022/07/14 07:37:46;;;;;;;2.87;2.60;;;27.90;1.00;;;;;;5073188;28;20170;-71
2022/07/14 07:40:12;;;;;;;7.33;2.43;;;27.90;1.00;;;;;;5059445;28;20413;-71
2022/07/14 07:42:38;;;;;;;4.63;2.53;;;27.90;1.00;;;;;;5053228;28;20405;-71
2022/07/14 07:45:04;;;;;;;10.83;2.40;;;28.00;1.00;;;;;;5064818;28;20519;-71
2022/07/14 07:47:30;;;;;;;9.60;2.20;;;28.10;1.00;;;;;;5073428;28;20709;-71
2022/07/14 07:49:56;;;;;;;6.33;2.20;;;28.10;1.00;;;;;;5073022;28;20412;-71
2022/07/14 07:52:22;;;;;;;2.93;2.50;;;28.20;1.00;;;;;;5054288;28;20444;-71
2022/07/14 07:54:48;;;;;;;2.60;2.30;;;28.40;1.00;;;;;;5053047;28;20598;-71
2022/07/14 07:57:14;;;;;;;6.60;2.57;;;28.50;1.00;;;;;;5061305;28;20494;-71
2022/07/14 07:59:40;;;;;;;3.80;2.57;;;28.60;1.00;;;;;;5065113;28;20257;-71
2022/07/14 08:02:06;;;;;;;6.77;2.60;;;28.80;1.00;;;;;;5057465;28;20444;-71
2022/07/14 08:04:32;;;;;;;5.73;2.70;;;28.80;1.00;;;;;;5073852;28;20185;-71
2022/07/14 08:06:58;;;;;;;3.37;2.50;;;28.90;1.00;;;;;;5058584;28;20182;-71
2022/07/14 08:09:24;;;;;;;2.60;2.37;;;28.90;1.00;;;;;;5072094;28;20420;-71
2022/07/14 08:11:49;;;;;;;2.77;2.43;;;29.10;1.00;;;;;;5076853;28;20472;-71
2022/07/14 08:17:00;;;;;;;3.40;2.60;;;29.30;1.00;;;;;;5070605;28;20224;-73
2022/07/14 08:19:26;;;;;;;4.03;2.60;;;29.40;1.00;;;;;;5066252;28;20907;-73
2022/07/14 08:21:52;;;;;;;3.00;2.70;;;29.50;1.00;;;;;;5076932;28;20638;-73
2022/07/14 08:24:20;;;;;;;4.00;2.60;;;29.60;1.00;;;;;;5076289;28;20477;-73
2022/07/14 08:26:46;;;;;;;6.00;2.70;;;29.70;1.00;;;;;;5076740;28;20639;-73
2022/07/14 08:29:16;;;;;;;5.43;2.80;;;29.80;1.00;;;;;;5072947;28;20423;-72
2022/07/14 08:31:45;;;;;;;5.33;2.87;;;29.90;1.00;;;;;;5073919;28;20943;-71
2022/07/14 08:34:11;;;;;;;2.30;2.20;;;29.90;1.00;;;;;;5074509;28;20977;-73
2022/07/14 08:36:37;;;;;;;7.43;2.40;;;29.90;1.00;;;;;;5066317;28;20498;-73
2022/07/14 08:39:05;;;;;;;4.80;2.57;;;29.90;1.00;;;;;;5063882;28;20409;-73
2022/07/14 08:41:36;;;;;;;4.57;2.97;;;30.00;1.00;;;;;;5077377;28;20478;-86
2022/07/14 08:44:28;;;;;;;2.97;2.77;;;29.80;1.00;;;;;;5064164;28;20413;-86
2022/07/14 08:47:04;;;;;;;3.37;2.30;;;29.60;1.00;;;;;;5077141;28;20420;-82
2022/07/14 08:49:40;;;;;;;9.13;3.40;;;29.40;1.00;;;;;;5076227;28;20499;-89
2022/07/14 08:52:05;;;;;;;11.40;2.43;;;29.40;1.00;;;;;;5069006;28;20823;-73
2022/07/14 08:54:35;;;;;;;5.63;3.00;;;29.40;1.00;;;;;;5068530;28;20400;-73
2022/07/14 08:57:02;;;;;;;4.93;2.83;;;29.20;1.00;;;;;;5077654;28;20205;-73
2022/07/14 08:59:28;;;;;;;5.80;2.43;;;29.10;1.00;;;;;;5061746;28;20770;-73
2022/07/14 09:01:56;;;;;;;9.23;2.37;;;29.30;1.00;;;;;;5061558;28;20419;-73
2022/07/14 09:04:22;;;;;;;3.20;2.90;;;29.50;1.00;;;;;;5075581;28;20980;-73
2022/07/14 09:06:52;;;;;;;3.13;2.87;;;29.50;1.00;;;;;;5059748;28;20430;-73
2022/07/14 09:09:34;;;;;;;6.80;2.50;;;29.60;1.00;;;;;;5055918;28;20421;-73
2022/07/14 09:12:06;;;;;;;4.40;2.73;;;30.00;1.00;;;;;;5066888;28;20421;-73
2022/07/14 09:17:20;;;;;;;10.93;3.07;;;30.70;1.00;;;;;;5074689;28;20610;-73
2022/07/14 09:20:09;;;;;;;12.13;3.17;;;30.70;1.00;;;;;;5075174;28;20451;-74
2022/07/14 09:22:38;;;;;;;4.60;2.90;;;30.60;1.00;;;;;;5064799;28;20904;-73
2022/07/14 09:25:09;;;;;;;3.30;2.70;;;30.40;1.00;;;;;;5055596;28;20410;-73
2022/07/14 09:27:35;;;;;;;3.27;2.97;;;30.40;1.00;;;;;;5055648;28;20414;-73
2022/07/14 09:30:06;;;;;;;6.30;2.50;;;30.20;1.00;;;;;;5073603;28;20956;-73
2022/07/14 09:32:51;;;;;;;8.93;2.90;;;30.00;1.00;;;;;;5075764;28;20406;-73
2022/07/14 09:35:33;;;;;;;3.10;2.80;;;30.00;1.00;;;;;;5063514;28;20470;-73
2022/07/14 09:37:59;;;;;;;16.63;3.60;;;30.20;1.00;;;;;;5069826;28;20424;-73
2022/07/14 09:40:31;;;;;;;6.27;2.80;;;30.30;1.00;;;;;;5074952;28;20413;-73
2022/07/14 09:43:05;;;;;;;7.50;2.90;;;30.10;1.00;;;;;;5075271;28;20409;-73
2022/07/14 09:45:34;;;;;;;4.03;2.97;;;30.20;1.00;;;;;;5075297;28;20895;-74
2022/07/14 09:48:10;;;;;;;4.30;3.10;;;30.10;1.00;;;;;;5056147;28;20434;-73
2022/07/14 09:50:41;;;;;;;7.63;2.90;;;30.00;1.00;;;;;;5055085;28;20406;-72
2022/07/14 09:53:18;;;;;;;6.70;2.87;;;29.80;1.00;;;;;;5055208;28;20809;-73
2022/07/14 09:55:51;;;;;;;3.00;2.70;;;29.60;1.00;;;;;;5059076;28;20499;-73
2022/07/14 09:58:19;;;;;;;7.93;3.23;;;29.30;1.00;;;;;;5074780;28;20796;-73
2022/07/14 10:00:55;;;;;;;10.23;3.17;;;29.20;1.00;;;;;;5074955;28;20789;-73
2022/07/14 10:03:22;;;;;;;19.03;3.47;;;29.20;1.00;;;;;;5071665;28;20456;-73
2022/07/14 10:05:49;;;;;;;5.87;3.40;;;29.30;1.00;;;;;;5074714;28;20411;-73
2022/07/14 10:08:18;;;;;;;4.10;2.83;;;29.50;1.00;;;;;;5070516;28;20436;-73
2022/07/14 10:10:44;;;;;;;3.83;2.90;;;29.50;1.00;;;;;;5062945;28;20426;-73
2022/07/14 10:13:11;;;;;;;11.90;2.97;;;29.50;1.00;;;;;;5073143;28;20433;-73
2022/07/14 10:15:37;;;;;;;3.53;3.23;;;29.50;1.00;;;;;;5072317;28;20194;-73
2022/07/14 10:18:03;;;;;;;3.80;3.17;;;29.60;1.00;;;;;;5071278;28;20520;-70
2022/07/14 10:20:29;;;;;;;5.53;3.10;;;29.70;1.00;;;;;;5069928;28;20493;-71
2022/07/14 10:22:56;;;;;;;6.03;2.90;;;29.80;1.00;;;;;;5074363;28;20178;-71
2022/07/14 10:25:22;;;;;;;11.07;3.70;;;29.90;1.00;;;;;;5072264;28;20463;-84
2022/07/14 10:27:48;;;;;;;9.50;2.93;;;29.90;1.00;;;;;;5059931;28;20414;-73
2022/07/14 10:30:15;;;;;;;5.27;3.43;;;30.00;1.00;;;;;;5074123;28;20190;-73
2022/07/14 10:32:56;;;;;;;4.10;3.60;;;30.30;1.00;;;;;;5074159;28;20425;-74
2022/07/14 10:35:44;;;;;;;5.83;3.63;;;30.40;1.00;;;;;;5062706;28;21045;-70
2022/07/14 10:38:24;;;;;;;5.43;3.00;;;30.60;1.00;;;;;;5073858;28;20459;-80
2022/07/14 10:41:18;;;;;;;6.53;3.53;;;30.80;1.00;;;;;;5074118;28;20390;-69
2022/07/14 10:44:14;;;;;;;6.13;3.20;;;30.90;1.00;;;;;;5074027;28;20485;-68
2022/07/14 10:46:43;;;;;;;5.30;3.13;;;30.80;1.00;;;;;;5073608;28;20437;-68
2022/07/14 10:49:11;;;;;;;14.23;3.20;;;31.10;1.00;;;;;;5058853;28;20902;-70
2022/07/14 10:51:50;;;;;;;6.27;3.10;;;31.60;1.00;;;;;;5059926;28;20413;-71
2022/07/14 10:54:22;;;;;;;3.13;2.80;;;31.60;1.00;;;;;;5069005;28;20426;-71
2022/07/14 10:56:49;;;;;;;3.57;3.27;;;31.80;1.00;;;;;;5070451;28;20974;-71
2022/07/14 10:59:26;;;;;;;5.63;3.33;;;31.80;1.00;;;;;;5073552;28;20451;-71
2022/07/14 11:02:13;;;;;;;9.60;3.80;;;31.70;1.00;;;;;;5065841;28;20492;-71
2022/07/14 11:05:15;;;;;;;5.60;3.10;;;31.40;1.00;;;;;;5063199;28;20441;-69
2022/07/14 11:07:50;;;;;;;6.53;4.00;;;31.30;1.00;;;;;;5058853;28;20429;-73
2022/07/14 11:10:18;;;;;;;3.97;3.57;;;31.30;1.00;;;;;;5065788;28;20443;-74
2022/07/14 11:12:59;;;;;;;6.60;3.17;;;31.30;1.00;;;;;;5076666;28;20452;-73
2022/07/14 11:15:51;;;;;;;8.60;3.73;;;31.70;1.00;;;;;;5073698;28;20444;-73
2022/07/14 11:18:26;;;;;;;15.10;3.27;;;31.60;1.00;;;;;;5086224;28;20404;-76
2022/07/14 11:21:13;;;;;;;4.70;3.50;;;31.50;1.00;;;;;;5073863;28;20424;-76
2022/07/14 11:23:50;;;;;;;6.13;2.73;;;31.90;1.00;;;;;;5067946;28;20410;-77
2022/07/14 11:26:40;;;;;;;4.50;3.00;;;32.20;1.00;;;;;;5067757;28;20411;-76
2022/07/14 11:29:31;;;;;;;3.40;3.07;;;32.40;1.00;;;;;;5063617;28;20411;-76
2022/07/14 11:32:35;;;;;;;2.90;2.63;;;32.70;1.00;;;;;;5061165;28;20429;-76
2022/07/14 11:38:20;;;;;;;2.90;2.70;;;32.30;1.00;;;;;;5060374;28;20424;-78
2022/07/14 11:41:10;;;;;;;7.67;2.93;;;32.30;1.00;;;;;;5060722;28;20885;-77
2022/07/14 11:43:40;;;;;;;3.57;3.23;;;32.60;1.00;;;;;;5053847;28;20416;-77
2022/07/14 11:46:33;;;;;;;4.00;2.90;;;32.50;1.00;;;;;;5066969;28;20464;-77
2022/07/14 11:49:01;;;;;;;3.07;2.77;;;32.60;1.00;;;;;;5054912;28;20395;-74
2022/07/14 11:51:29;;;;;;;6.13;2.90;;;32.40;1.00;;;;;;5073336;28;20468;-74
2022/07/14 11:53:57;;;;;;;3.20;3.00;;;32.60;1.00;;;;;;5073423;28;20824;-74
2022/07/14 11:56:29;;;;;;;6.43;2.93;;;32.40;1.00;;;;;;5064729;28;20465;-74
2022/07/14 11:59:03;;;;;;;4.13;2.73;;;32.50;1.00;;;;;;5069348;28;20417;-74
2022/07/14 12:01:37;;;;;;;3.40;3.10;;;32.60;1.00;;;;;;5073336;28;20405;-74
2022/07/14 12:04:17;;;;;;;9.27;3.30;;;32.50;1.00;;;;;;5068741;28;20425;-74
2022/07/14 12:06:45;;;;;;;4.90;3.10;;;32.30;1.00;;;;;;5066875;28;20463;-74
2022/07/14 12:09:13;;;;;;;7.83;3.20;;;32.00;1.00;;;;;;5060651;28;20413;-74
2022/07/14 12:11:52;;;;;;;4.13;2.90;;;31.70;1.00;;;;;;5058662;28;20422;-74
2022/07/14 12:14:18;;;;;;;3.83;2.80;;;31.50;1.00;;;;;;5067041;28;20849;-74
2022/07/14 12:16:45;;;;;;;4.90;2.90;;;31.40;1.00;;;;;;5064634;28;21690;-74
2022/07/14 12:19:12;;;;;;;6.70;3.20;;;31.60;1.00;;;;;;5063781;28;20410;-76
2022/07/14 12:21:40;;;;;;;5.80;3.00;;;31.60;1.00;;;;;;5066656;28;20445;-76
2022/07/14 12:24:13;;;;;;;2.93;2.60;;;31.70;1.00;;;;;;5062809;28;20915;-76
2022/07/14 12:26:46;;;;;;;4.10;2.97;;;31.80;1.00;;;;;;5060079;28;20500;-76
2022/07/14 12:29:34;;;;;;;3.23;2.70;;;32.00;1.00;;;;;;5061596;28;20621;-76
2022/07/14 12:32:16;;;;;;;4.60;3.07;;;32.20;1.00;;;;;;5060982;28;20413;-76
2022/07/14 12:34:43;;;;;;;2.87;2.53;;;32.80;1.00;;;;;;5059908;28;20504;-74
2022/07/14 12:37:10;;;;;;;6.10;2.57;;;32.80;1.00;;;;;;5072911;28;20464;-73
2022/07/14 12:39:38;;;;;;;2.60;2.40;;;32.80;1.00;;;;;;5069677;28;20460;-74
2022/07/14 12:42:04;;;;;;;2.60;2.40;;;32.70;1.00;;;;;;5054799;28;20855;-73
2022/07/14 12:44:31;;;;;;;3.33;2.80;;;32.60;1.00;;;;;;5073404;28;20404;-74
2022/07/14 12:47:12;;;;;;;4.33;3.00;;;32.40;1.00;;;;;;5076323;28;20409;-73
2022/07/14 12:49:47;;;;;;;4.10;2.50;;;32.30;1.00;;;;;;5073029;28;20433;-76
2022/07/14 12:52:16;;;;;;;3.13;2.40;;;32.30;1.00;;;;;;5076604;28;20431;-77
2022/07/14 12:54:46;;;;;;;7.30;2.67;;;32.60;1.00;;;;;;5064071;28;20409;-77
2022/07/14 12:57:23;;;;;;;4.90;2.17;;;33.10;1.00;;;;;;5076654;28;20456;-76
2022/07/14 12:59:58;;;;;;;7.80;2.77;;;33.60;1.00;;;;;;5067275;28;20449;-76
2022/07/14 13:02:24;;;;;;;4.67;2.57;;;33.80;1.00;;;;;;5069855;28;20417;-76
2022/07/14 13:05:02;;;;;;;5.73;2.13;;;34.00;1.00;;;;;;5057345;28;20429;-78
2022/07/14 13:07:32;;;;;;;4.07;2.60;;;33.90;1.00;;;;;;5069771;28;20932;-77
2022/07/14 13:10:17;;;;;;;4.67;2.10;;;33.50;1.00;;;;;;5069201;28;20448;-77
2022/07/14 13:13:25;;;;;;;6.70;1.87;;;33.30;1.00;;;;;;5074669;28;20941;-76
2022/07/14 13:15:51;;;;;;;4.20;1.80;;;33.20;1.00;;;;;;5062451;28;20551;-76
2022/07/14 13:18:17;;;;;;;6.50;1.90;;;33.20;1.00;;;;;;5074736;28;20960;-77
2022/07/14 13:23:35;;;;;;;4.30;1.67;;;33.10;1.00;;;;;;5075831;28;20187;-74
2022/07/14 13:26:13;;;;;;;4.40;1.80;;;33.30;1.00;;;;;;5075476;28;20772;-75
2022/07/14 13:28:41;;;;;;;5.70;2.10;;;33.50;1.00;;;;;;5061065;28;20548;-73
2022/07/14 13:31:13;;;;;;;3.60;1.77;;;33.30;1.00;;;;;;5073828;28;20881;-72
2022/07/14 13:33:41;;;;;;;2.80;2.03;;;32.80;1.00;;;;;;5075522;28;20405;-71
2022/07/14 13:36:08;;;;;;;2.80;1.80;;;32.80;1.00;;;;;;5074248;28;20954;-72
2022/07/14 13:38:36;;;;;;;3.37;2.30;;;32.80;1.00;;;;;;5075358;28;20425;-72
2022/07/14 13:41:03;;;;;;;5.00;1.80;;;32.30;1.00;;;;;;5075439;28;20892;-75
2022/07/14 13:43:41;;;;;;;4.03;1.73;;;32.10;1.00;;;;;;5065090;28;20508;-76
2022/07/14 13:46:07;;;;;;;6.17;1.70;;;31.60;1.00;;;;;;5076388;28;20419;-75
2022/07/14 13:48:36;;;;;;;1.90;1.80;;;31.30;1.00;;;;;;5064789;28;20445;-78
2022/07/14 13:53:52;;;;;;;5.60;2.00;;;30.80;1.00;;;;;;5074753;28;20761;-79
2022/07/14 13:56:18;;;;;;;8.00;1.97;;;30.50;1.00;;;;;;5061670;28;20455;-78
2022/07/14 13:58:44;;;;;;;9.77;2.60;;;30.50;1.00;;;;;;5061968;28;20410;-77